sensor_id;sensor_type;location;lat;lon;timestamp;pressure;altitude;pressure_sealevel;temperature;humidity
74921;BME280;63483;47.384;8.860;2023-04-12T00:02:11;94189.31;;;6.38;50.46
74921;BME280;63483;47.384;8.860;2023-04-12T00:04:36;94179.38;;;6.41;50.18
74921;BME280;63483;47.384;8.860;2023-04-12T00:07:02;94173.56;;;6.39;50.48
74921;BME280;63483;47.384;8.860;2023-04-12T00:09:28;94164.13;;;6.38;50.33
74921;BME280;63483;47.384;8.860;2023-04-12T00:11:55;94148.50;;;6.38;50.14
74921;BME280;63483;47.384;8.860;2023-04-12T00:14:21;94157.47;;;6.35;50.22
74921;BME280;63483;47.384;8.860;2023-04-12T00:16:46;94148.84;;;6.35;50.33
74921;BME280;63483;47.384;8.860;2023-04-12T00:19:12;94152.75;;;6.39;50.75
74921;BME280;63483;47.384;8.860;2023-04-12T00:21:37;94139.09;;;6.37;50.61
74921;BME280;63483;47.384;8.860;2023-04-12T00:24:03;94132.91;;;6.38;50.68
74921;BME280;63483;47.384;8.860;2023-04-12T00:26:28;94131.47;;;6.35;50.96
74921;BME280;63483;47.384;8.860;2023-04-12T00:28:54;94123.81;;;6.34;50.15
74921;BME280;63483;47.384;8.860;2023-04-12T00:31:19;94121.53;;;6.31;49.68
74921;BME280;63483;47.384;8.860;2023-04-12T00:33:45;94120.56;;;6.24;50.64
74921;BME280;63483;47.384;8.860;2023-04-12T00:36:10;94117.13;;;6.31;50.52
74921;BME280;63483;47.384;8.860;2023-04-12T00:38:36;94105.44;;;6.35;50.29
74921;BME280;63483;47.384;8.860;2023-04-12T00:41:01;94096.97;;;6.33;50.55
74921;BME280;63483;47.384;8.860;2023-04-12T00:43:26;94083.16;;;6.33;51.03
74921;BME280;63483;47.384;8.860;2023-04-12T00:45:53;94078.63;;;6.35;50.61
74921;BME280;63483;47.384;8.860;2023-04-12T00:48:21;94079.28;;;6.37;50.64
74921;BME280;63483;47.384;8.860;2023-04-12T00:50:47;94075.34;;;6.41;50.81
74921;BME280;63483;47.384;8.860;2023-04-12T00:53:13;94066.91;;;6.39;50.69
74921;BME280;63483;47.384;8.860;2023-04-12T00:55:40;94064.47;;;6.38;50.97
74921;BME280;63483;47.384;8.860;2023-04-12T00:58:06;94051.94;;;6.33;50.63
74921;BME280;63483;47.384;8.860;2023-04-12T01:00:32;94043.50;;;6.31;50.71
74921;BME280;63483;47.384;8.860;2023-04-12T01:02:58;94031.81;;;6.27;51.01
74921;BME280;63483;47.384;8.860;2023-04-12T01:05:26;94025.34;;;6.14;51.26
74921;BME280;63483;47.384;8.860;2023-04-12T01:14:07;94008.63;;;6.09;51.14
74921;BME280;63483;47.384;8.860;2023-04-12T01:21:44;94002.25;;;6.20;51.35
74921;BME280;63483;47.384;8.860;2023-04-12T01:24:37;93995.16;;;6.05;51.62
74921;BME280;63483;47.384;8.860;2023-04-12T01:27:19;93989.59;;;6.08;52.14
74921;BME280;63483;47.384;8.860;2023-04-12T01:29:48;93994.16;;;6.06;51.83
74921;BME280;63483;47.384;8.860;2023-04-12T01:32:15;93990.00;;;5.89;50.04
74921;BME280;63483;47.384;8.860;2023-04-12T01:34:42;93966.06;;;5.29;45.11
74921;BME280;63483;47.384;8.860;2023-04-12T01:37:08;93990.22;;;4.80;45.90
74921;BME280;63483;47.384;8.860;2023-04-12T01:39:34;93986.25;;;4.51;44.44
74921;BME280;63483;47.384;8.860;2023-04-12T01:41:59;93990.47;;;4.10;45.51
74921;BME280;63483;47.384;8.860;2023-04-12T01:44:25;93976.81;;;3.91;47.64
74921;BME280;63483;47.384;8.860;2023-04-12T01:46:50;93964.31;;;4.29;49.11
74921;BME280;63483;47.384;8.860;2023-04-12T01:49:17;93964.13;;;4.22;50.61
74921;BME280;63483;47.384;8.860;2023-04-12T01:52:02;93961.81;;;4.03;49.39
74921;BME280;63483;47.384;8.860;2023-04-12T01:54:34;93954.06;;;3.77;46.88
74921;BME280;63483;47.384;8.860;2023-04-12T01:57:01;93942.63;;;3.53;47.72
74921;BME280;63483;47.384;8.860;2023-04-12T01:59:31;93919.00;;;3.56;48.73
74921;BME280;63483;47.384;8.860;2023-04-12T02:01:58;93916.91;;;3.60;49.45
74921;BME280;63483;47.384;8.860;2023-04-12T02:04:25;93919.19;;;3.97;51.46
74921;BME280;63483;47.384;8.860;2023-04-12T02:06:52;93896.47;;;3.83;46.21
74921;BME280;63483;47.384;8.860;2023-04-12T02:09:18;93891.84;;;3.60;46.59
74921;BME280;63483;47.384;8.860;2023-04-12T02:11:47;93908.41;;;3.76;48.07
74921;BME280;63483;47.384;8.860;2023-04-12T02:14:13;93928.78;;;3.70;44.61
74921;BME280;63483;47.384;8.860;2023-04-12T02:16:39;93924.22;;;3.64;45.29
74921;BME280;63483;47.384;8.860;2023-04-12T02:19:06;93918.94;;;3.48;43.13
74921;BME280;63483;47.384;8.860;2023-04-12T02:21:43;93903.09;;;3.51;44.94
74921;BME280;63483;47.384;8.860;2023-04-12T02:24:09;93897.91;;;3.43;43.99
74921;BME280;63483;47.384;8.860;2023-04-12T02:26:35;93898.44;;;3.28;50.32
74921;BME280;63483;47.384;8.860;2023-04-12T02:29:02;93903.22;;;3.67;55.91
74921;BME280;63483;47.384;8.860;2023-04-12T02:31:27;93918.75;;;3.67;55.92
74921;BME280;63483;47.384;8.860;2023-04-12T02:33:55;93916.28;;;4.08;55.93
74921;BME280;63483;47.384;8.860;2023-04-12T02:36:20;93896.56;;;4.32;56.48
74921;BME280;63483;47.384;8.860;2023-04-12T02:38:46;93887.19;;;4.39;55.88
74921;BME280;63483;47.384;8.860;2023-04-12T02:41:18;93878.94;;;4.60;55.30
74921;BME280;63483;47.384;8.860;2023-04-12T02:43:44;93895.34;;;4.77;54.65
74921;BME280;63483;47.384;8.860;2023-04-12T02:46:13;93898.25;;;4.91;54.13
74921;BME280;63483;47.384;8.860;2023-04-12T02:48:39;93911.56;;;5.04;54.27
74921;BME280;63483;47.384;8.860;2023-04-12T02:51:04;93910.25;;;5.17;54.21
74921;BME280;63483;47.384;8.860;2023-04-12T02:53:30;93905.88;;;5.25;54.07
74921;BME280;63483;47.384;8.860;2023-04-12T02:55:55;93905.88;;;5.34;53.75
74921;BME280;63483;47.384;8.860;2023-04-12T02:58:21;93914.94;;;5.38;54.20
74921;BME280;63483;47.384;8.860;2023-04-12T03:00:48;93919.31;;;5.45;53.69
74921;BME280;63483;47.384;8.860;2023-04-12T03:03:15;93922.19;;;5.51;53.36
74921;BME280;63483;47.384;8.860;2023-04-12T03:05:41;93918.31;;;5.55;53.31
74921;BME280;63483;47.384;8.860;2023-04-12T03:08:12;93917.00;;;5.59;53.23
74921;BME280;63483;47.384;8.860;2023-04-12T03:10:37;93908.88;;;5.62;52.82
74921;BME280;63483;47.384;8.860;2023-04-12T03:13:03;93900.09;;;5.63;53.47
74921;BME280;63483;47.384;8.860;2023-04-12T03:15:29;93900.75;;;5.65;53.37
74921;BME280;63483;47.384;8.860;2023-04-12T03:17:55;93889.72;;;5.63;52.75
74921;BME280;63483;47.384;8.860;2023-04-12T03:20:20;93911.75;;;5.67;53.31
74921;BME280;63483;47.384;8.860;2023-04-12T03:22:48;93913.88;;;5.72;53.08
74921;BME280;63483;47.384;8.860;2023-04-12T03:25:14;93909.16;;;5.75;53.06
74921;BME280;63483;47.384;8.860;2023-04-12T03:27:39;93894.69;;;5.73;53.08
74921;BME280;63483;47.384;8.860;2023-04-12T03:30:05;93883.50;;;5.72;53.03
74921;BME280;63483;47.384;8.860;2023-04-12T03:32:31;93856.91;;;5.70;53.02
74921;BME280;63483;47.384;8.860;2023-04-12T03:34:56;93855.91;;;5.71;52.75
74921;BME280;63483;47.384;8.860;2023-04-12T03:37:22;93846.00;;;5.75;52.98
74921;BME280;63483;47.384;8.860;2023-04-12T03:39:47;93841.25;;;5.78;52.84
74921;BME280;63483;47.384;8.860;2023-04-12T03:42:13;93852.94;;;5.82;52.62
74921;BME280;63483;47.384;8.860;2023-04-12T03:44:40;93845.75;;;5.85;52.81
74921;BME280;63483;47.384;8.860;2023-04-12T03:47:05;93840.22;;;5.88;52.49
74921;BME280;63483;47.384;8.860;2023-04-12T03:49:30;93833.09;;;5.90;52.57
74921;BME280;63483;47.384;8.860;2023-04-12T03:51:57;93844.09;;;5.92;52.22
74921;BME280;63483;47.384;8.860;2023-04-12T03:54:22;93845.75;;;5.85;52.38
74921;BME280;63483;47.384;8.860;2023-04-12T03:56:48;93814.91;;;5.90;52.60
74921;BME280;63483;47.384;8.860;2023-04-12T03:59:13;93822.88;;;5.88;52.67
74921;BME280;63483;47.384;8.860;2023-04-12T04:01:39;93810.66;;;5.89;52.91
74921;BME280;63483;47.384;8.860;2023-04-12T04:04:05;93801.91;;;5.90;52.68
74921;BME280;63483;47.384;8.860;2023-04-12T04:06:31;93786.31;;;5.90;52.54
74921;BME280;63483;47.384;8.860;2023-04-12T04:08:58;93809.03;;;5.88;52.67
74921;BME280;63483;47.384;8.860;2023-04-12T04:11:24;93810.66;;;5.89;53.12
74921;BME280;63483;47.384;8.860;2023-04-12T04:13:50;93801.41;;;5.86;53.15
74921;BME280;63483;47.384;8.860;2023-04-12T04:16:15;93822.19;;;5.86;52.97
74921;BME280;63483;47.384;8.860;2023-04-12T04:18:42;93807.44;;;5.87;52.79
74921;BME280;63483;47.384;8.860;2023-04-12T04:21:07;93808.25;;;5.87;52.88
74921;BME280;63483;47.384;8.860;2023-04-12T04:23:33;93797.03;;;5.87;53.00
74921;BME280;63483;47.384;8.860;2023-04-12T04:26:08;93798.63;;;5.88;53.23
74921;BME280;63483;47.384;8.860;2023-04-12T04:28:37;93800.91;;;5.91;52.80
74921;BME280;63483;47.384;8.860;2023-04-12T04:31:06;93800.72;;;5.92;53.12
74921;BME280;63483;47.384;8.860;2023-04-12T04:33:34;93803.19;;;5.94;52.65
74921;BME280;63483;47.384;8.860;2023-04-12T04:36:00;93799.59;;;5.95;53.36
74921;BME280;63483;47.384;8.860;2023-04-12T04:38:26;93799.59;;;5.95;53.09
74921;BME280;63483;47.384;8.860;2023-04-12T04:40:52;93797.97;;;5.94;53.07
74921;BME280;63483;47.384;8.860;2023-04-12T04:43:18;93801.84;;;5.98;52.79
74921;BME280;63483;47.384;8.860;2023-04-12T04:45:45;93797.66;;;5.89;52.97
74921;BME280;63483;47.384;8.860;2023-04-12T04:48:14;93797.97;;;5.94;52.72
74921;BME280;63483;47.384;8.860;2023-04-12T04:50:40;93793.59;;;5.94;53.36
74921;BME280;63483;47.384;8.860;2023-04-12T04:53:05;93790.00;;;5.95;52.98
74921;BME280;63483;47.384;8.860;2023-04-12T04:55:31;93785.97;;;5.93;53.08
74921;BME280;63483;47.384;8.860;2023-04-12T04:57:56;93786.94;;;5.92;53.44
74921;BME280;63483;47.384;8.860;2023-04-12T05:00:22;93796.81;;;5.96;53.46
74921;BME280;63483;47.384;8.860;2023-04-12T05:02:50;93798.25;;;5.99;53.33
74921;BME280;63483;47.384;8.860;2023-04-12T05:05:15;93792.53;;;6.04;53.20
74921;BME280;63483;47.384;8.860;2023-04-12T05:07:41;93793.50;;;6.03;53.46
74921;BME280;63483;47.384;8.860;2023-04-12T05:10:10;93778.41;;;6.06;53.26
74921;BME280;63483;47.384;8.860;2023-04-12T05:12:36;93770.25;;;6.09;53.20
74921;BME280;63483;47.384;8.860;2023-04-12T05:15:02;93768.28;;;6.11;52.83
74921;BME280;63483;47.384;8.860;2023-04-12T05:17:27;93773.13;;;6.14;53.26
74921;BME280;63483;47.384;8.860;2023-04-12T05:19:53;93759.81;;;6.17;53.33
74921;BME280;63483;47.384;8.860;2023-04-12T05:22:19;93744.19;;;6.17;53.26
74921;BME280;63483;47.384;8.860;2023-04-12T05:24:48;93740.25;;;6.22;52.95
74921;BME280;63483;47.384;8.860;2023-04-12T05:27:14;93743.84;;;6.21;53.01
74921;BME280;63483;47.384;8.860;2023-04-12T05:29:43;93724.66;;;6.22;53.15
74921;BME280;63483;47.384;8.860;2023-04-12T05:32:08;93724.03;;;6.20;53.50
74921;BME280;63483;47.384;8.860;2023-04-12T05:34:34;93721.06;;;6.23;53.39
74921;BME280;63483;47.384;8.860;2023-04-12T05:36:59;93724.47;;;6.23;53.10
74921;BME280;63483;47.384;8.860;2023-04-12T05:39:26;93730.16;;;6.27;53.35
74921;BME280;63483;47.384;8.860;2023-04-12T05:41:51;93730.75;;;6.29;53.07
74921;BME280;63483;47.384;8.860;2023-04-12T05:44:17;93725.38;;;6.30;53.48
74921;BME280;63483;47.384;8.860;2023-04-12T05:46:43;93711.59;;;6.30;53.00
74921;BME280;63483;47.384;8.860;2023-04-12T05:49:08;93710.63;;;6.31;53.19
74921;BME280;63483;47.384;8.860;2023-04-12T05:51:33;93707.00;;;6.32;53.44
74921;BME280;63483;47.384;8.860;2023-04-12T05:53:59;93709.28;;;6.35;53.43
74921;BME280;63483;47.384;8.860;2023-04-12T05:56:25;93706.31;;;6.38;53.44
74921;BME280;63483;47.384;8.860;2023-04-12T05:58:50;93698.81;;;6.43;53.97
74921;BME280;63483;47.384;8.860;2023-04-12T06:01:16;93684.41;;;6.17;50.85
74921;BME280;63483;47.384;8.860;2023-04-12T06:03:43;93668.19;;;5.46;46.31
74921;BME280;63483;47.384;8.860;2023-04-12T06:06:08;93662.13;;;4.91;47.46
74921;BME280;63483;47.384;8.860;2023-04-12T06:08:35;93666.75;;;4.56;48.63
74921;BME280;63483;47.384;8.860;2023-04-12T06:11:02;93663.84;;;4.59;48.63
74921;BME280;63483;47.384;8.860;2023-04-12T06:13:28;93677.69;;;4.35;48.43
74921;BME280;63483;47.384;8.860;2023-04-12T06:15:53;93663.13;;;4.25;46.89
74921;BME280;63483;47.384;8.860;2023-04-12T06:18:18;93644.50;;;4.14;48.84
74921;BME280;63483;47.384;8.860;2023-04-12T06:20:44;93633.47;;;4.28;46.38
74921;BME280;63483;47.384;8.860;2023-04-12T06:23:09;93636.13;;;3.87;47.24
74921;BME280;63483;47.384;8.860;2023-04-12T06:25:36;93628.97;;;4.14;51.84
74921;BME280;63483;47.384;8.860;2023-04-12T06:28:01;93626.03;;;4.08;54.05
74921;BME280;63483;47.384;8.860;2023-04-12T06:30:27;93612.31;;;3.83;52.05
74921;BME280;63483;47.384;8.860;2023-04-12T06:32:52;93609.75;;;3.75;52.40
74921;BME280;63483;47.384;8.860;2023-04-12T06:35:18;93606.19;;;3.68;51.03
74921;BME280;63483;47.384;8.860;2023-04-12T06:37:44;93601.66;;;3.37;52.33
74921;BME280;63483;47.384;8.860;2023-04-12T06:40:09;93602.13;;;3.74;53.23
74921;BME280;63483;47.384;8.860;2023-04-12T06:42:36;93596.63;;;3.68;53.23
74921;BME280;63483;47.384;8.860;2023-04-12T06:45:02;93615.69;;;4.08;55.06
74921;BME280;63483;47.384;8.860;2023-04-12T06:47:28;93605.59;;;4.22;51.38
74921;BME280;63483;47.384;8.860;2023-04-12T06:49:54;93615.03;;;4.15;49.13
74921;BME280;63483;47.384;8.860;2023-04-12T06:52:25;93611.78;;;4.21;49.79
74921;BME280;63483;47.384;8.860;2023-04-12T06:54:51;93611.94;;;4.11;49.27
74921;BME280;63483;47.384;8.860;2023-04-12T06:57:16;93608.56;;;4.11;48.06
74921;BME280;63483;47.384;8.860;2023-04-12T06:59:42;93603.72;;;4.07;47.29
74921;BME280;63483;47.384;8.860;2023-04-12T07:02:07;93598.88;;;4.04;45.87
74921;BME280;63483;47.384;8.860;2023-04-12T07:04:33;93614.41;;;3.88;47.40
74921;BME280;63483;47.384;8.860;2023-04-12T07:06:58;93603.72;;;3.75;46.71
74921;BME280;63483;47.384;8.860;2023-04-12T07:09:23;93596.31;;;3.80;47.91
74921;BME280;63483;47.384;8.860;2023-04-12T07:11:49;93602.59;;;3.77;48.30
74921;BME280;63483;47.384;8.860;2023-04-12T07:14:14;93591.09;;;3.96;48.77
74921;BME280;63483;47.384;8.860;2023-04-12T07:16:41;93602.03;;;4.23;51.85
74921;BME280;63483;47.384;8.860;2023-04-12T07:19:06;93597.75;;;4.55;53.69
74921;BME280;63483;47.384;8.860;2023-04-12T07:21:32;93567.16;;;4.73;52.50
74921;BME280;63483;47.384;8.860;2023-04-12T07:23:57;93596.94;;;4.94;52.27
74921;BME280;63483;47.384;8.860;2023-04-12T07:26:22;93585.50;;;5.11;54.88
74921;BME280;63483;47.384;8.860;2023-04-12T07:28:48;93569.09;;;5.34;56.99
74921;BME280;63483;47.384;8.860;2023-04-12T07:31:13;93576.72;;;5.59;55.59
74921;BME280;63483;47.384;8.860;2023-04-12T07:33:38;93559.66;;;5.79;56.36
74921;BME280;63483;47.384;8.860;2023-04-12T07:36:04;93549.09;;;5.96;56.93
74921;BME280;63483;47.384;8.860;2023-04-12T07:38:30;93538.63;;;6.19;57.01
74921;BME280;63483;47.384;8.860;2023-04-12T07:40:55;93523.38;;;6.31;56.74
74921;BME280;63483;47.384;8.860;2023-04-12T07:43:21;93526.78;;;6.46;56.36
74921;BME280;63483;47.384;8.860;2023-04-12T07:45:46;93523.97;;;6.63;54.88
74921;BME280;63483;47.384;8.860;2023-04-12T07:48:13;93541.34;;;6.77;55.29
74921;BME280;63483;47.384;8.860;2023-04-12T07:50:38;93544.91;;;6.91;54.82
74921;BME280;63483;47.384;8.860;2023-04-12T07:53:22;93528.25;;;7.07;54.84
74921;BME280;63483;47.384;8.860;2023-04-12T07:55:48;93527.56;;;7.20;54.96
74921;BME280;63483;47.384;8.860;2023-04-12T07:58:15;93527.88;;;7.32;54.25
74921;BME280;63483;47.384;8.860;2023-04-12T08:00:41;93528.88;;;7.52;51.85
74921;BME280;63483;47.384;8.860;2023-04-12T08:03:07;93524.25;;;7.54;51.54
74921;BME280;63483;47.384;8.860;2023-04-12T08:05:33;93524.88;;;7.78;51.36
74921;BME280;63483;47.384;8.860;2023-04-12T08:07:58;93507.28;;;7.87;51.35
74921;BME280;63483;47.384;8.860;2023-04-12T08:10:23;93496.94;;;8.00;50.86
74921;BME280;63483;47.384;8.860;2023-04-12T08:12:49;93505.78;;;8.06;50.27
74921;BME280;63483;47.384;8.860;2023-04-12T08:15:14;93510.44;;;8.10;50.02
74921;BME280;63483;47.384;8.860;2023-04-12T08:17:40;93509.47;;;8.18;47.82
74921;BME280;63483;47.384;8.860;2023-04-12T08:20:08;93523.22;;;8.34;49.07
74921;BME280;63483;47.384;8.860;2023-04-12T08:22:33;93518.06;;;8.47;49.11
74921;BME280;63483;47.384;8.860;2023-04-12T08:24:59;93533.53;;;8.55;47.49
74921;BME280;63483;47.384;8.860;2023-04-12T08:27:24;93517.66;;;8.57;47.61
74921;BME280;63483;47.384;8.860;2023-04-12T08:29:49;93518.69;;;8.62;47.00
74921;BME280;63483;47.384;8.860;2023-04-12T08:32:16;93523.78;;;8.77;46.43
74921;BME280;63483;47.384;8.860;2023-04-12T08:34:41;93523.44;;;8.87;45.72
74921;BME280;63483;47.384;8.860;2023-04-12T08:37:06;93523.06;;;8.90;46.09
74921;BME280;63483;47.384;8.860;2023-04-12T08:39:32;93532.06;;;8.88;45.61
74921;BME280;63483;47.384;8.860;2023-04-12T08:41:57;93533.47;;;8.84;44.07
74921;BME280;63483;47.384;8.860;2023-04-12T08:44:33;93537.94;;;8.96;44.74
74921;BME280;63483;47.384;8.860;2023-04-12T08:47:01;93531.50;;;8.99;44.66
74921;BME280;63483;47.384;8.860;2023-04-12T08:49:27;93528.03;;;8.85;44.98
74921;BME280;63483;47.384;8.860;2023-04-12T08:51:53;93523.66;;;8.86;44.96
74921;BME280;63483;47.384;8.860;2023-04-12T08:54:19;93517.47;;;9.07;45.53
74921;BME280;63483;47.384;8.860;2023-04-12T08:56:45;93519.09;;;9.21;45.01
74921;BME280;63483;47.384;8.860;2023-04-12T08:59:12;93512.28;;;9.33;45.11
74921;BME280;63483;47.384;8.860;2023-04-12T09:01:40;93509.47;;;9.42;45.77
74921;BME280;63483;47.384;8.860;2023-04-12T09:04:06;93515.88;;;9.46;44.53
74921;BME280;63483;47.384;8.860;2023-04-12T09:06:32;93508.28;;;9.51;45.24
74921;BME280;63483;47.384;8.860;2023-04-12T09:08:58;93504.63;;;9.52;43.88
74921;BME280;63483;47.384;8.860;2023-04-12T09:11:27;93499.59;;;9.64;44.33
74921;BME280;63483;47.384;8.860;2023-04-12T09:13:56;93503.44;;;9.75;44.89
74921;BME280;63483;47.384;8.860;2023-04-12T09:18:59;93502.81;;;9.99;45.32
74921;BME280;63483;47.384;8.860;2023-04-12T09:21:26;93504.84;;;10.04;44.08
74921;BME280;63483;47.384;8.860;2023-04-12T09:24:05;93515.06;;;10.19;43.96
74921;BME280;63483;47.384;8.860;2023-04-12T09:26:35;93528.34;;;10.24;44.33
74921;BME280;63483;47.384;8.860;2023-04-12T09:29:01;93514.22;;;10.32;42.43
74921;BME280;63483;47.384;8.860;2023-04-12T09:31:27;93523.25;;;10.43;42.87
74921;BME280;63483;47.384;8.860;2023-04-12T09:34:04;93510.97;;;10.50;42.42
74921;BME280;63483;47.384;8.860;2023-04-12T09:36:39;93514.75;;;10.54;42.77
74921;BME280;63483;47.384;8.860;2023-04-12T09:39:05;93520.19;;;10.59;42.92
74921;BME280;63483;47.384;8.860;2023-04-12T09:41:31;93517.31;;;10.67;42.30
74921;BME280;63483;47.384;8.860;2023-04-12T09:43:58;93516.72;;;10.65;41.05
74921;BME280;63483;47.384;8.860;2023-04-12T09:46:23;93515.25;;;10.83;41.88
74921;BME280;63483;47.384;8.860;2023-04-12T09:48:53;93513.53;;;10.63;39.42
74921;BME280;63483;47.384;8.860;2023-04-12T09:51:28;93515.09;;;10.71;40.27
74921;BME280;63483;47.384;8.860;2023-04-12T09:54:00;93502.78;;;10.78;42.30
74921;BME280;63483;47.384;8.860;2023-04-12T09:56:31;93507.81;;;10.80;40.54
74921;BME280;63483;47.384;8.860;2023-04-12T09:59:02;93510.81;;;10.90;40.03
74921;BME280;63483;47.384;8.860;2023-04-12T10:01:32;93520.88;;;10.93;40.10
74921;BME280;63483;47.384;8.860;2023-04-12T10:03:59;93516.06;;;10.90;39.43
74921;BME280;63483;47.384;8.860;2023-04-12T10:06:25;93506.75;;;10.87;39.25
74921;BME280;63483;47.384;8.860;2023-04-12T10:08:52;93512.00;;;10.87;39.42
74921;BME280;63483;47.384;8.860;2023-04-12T10:11:18;93496.66;;;10.98;40.25
74921;BME280;63483;47.384;8.860;2023-04-12T10:13:44;93513.19;;;10.98;40.49
74921;BME280;63483;47.384;8.860;2023-04-12T10:16:10;93505.28;;;11.05;39.88
74921;BME280;63483;47.384;8.860;2023-04-12T10:18:37;93499.88;;;11.00;39.36
74921;BME280;63483;47.384;8.860;2023-04-12T10:21:03;93504.31;;;10.99;39.98
74921;BME280;63483;47.384;8.860;2023-04-12T10:23:32;93510.13;;;11.01;38.34
74921;BME280;63483;47.384;8.860;2023-04-12T10:25:59;93504.66;;;11.10;39.49
74921;BME280;63483;47.384;8.860;2023-04-12T10:28:26;93500.34;;;10.90;39.80
74921;BME280;63483;47.384;8.860;2023-04-12T10:30:55;93505.50;;;11.03;38.88
74921;BME280;63483;47.384;8.860;2023-04-12T10:33:26;93519.25;;;10.99;39.64
74921;BME280;63483;47.384;8.860;2023-04-12T10:38:25;93514.94;;;11.04;38.85
74921;BME280;63483;47.384;8.860;2023-04-12T10:41:14;93522.47;;;10.94;36.87
74921;BME280;63483;47.384;8.860;2023-04-12T10:43:41;93500.69;;;11.00;37.69
74921;BME280;63483;47.384;8.860;2023-04-12T10:46:07;93506.31;;;11.04;38.55
74921;BME280;63483;47.384;8.860;2023-04-12T10:48:36;93500.19;;;11.17;38.90
74921;BME280;63483;47.384;8.860;2023-04-12T10:53:38;93499.84;;;11.06;37.40
74921;BME280;63483;47.384;8.860;2023-04-12T10:59:05;93507.00;;;11.24;37.67
74921;BME280;63483;47.384;8.860;2023-04-12T11:01:31;93515.00;;;11.30;38.04
74921;BME280;63483;47.384;8.860;2023-04-12T11:04:20;93511.16;;;11.00;39.64
74921;BME280;63483;47.384;8.860;2023-04-12T11:11:42;93498.72;;;11.53;37.55
74921;BME280;63483;47.384;8.860;2023-04-12T11:14:13;93500.84;;;11.37;38.19
74921;BME280;63483;47.384;8.860;2023-04-12T11:22:03;93485.03;;;11.51;37.36
74921;BME280;63483;47.384;8.860;2023-04-12T11:24:28;93502.38;;;11.20;38.29
74921;BME280;63483;47.384;8.860;2023-04-12T11:26:55;93500.84;;;11.37;37.74
74921;BME280;63483;47.384;8.860;2023-04-12T11:29:24;93503.16;;;11.52;37.91
74921;BME280;63483;47.384;8.860;2023-04-12T11:31:49;93491.44;;;11.55;37.56
74921;BME280;63483;47.384;8.860;2023-04-12T11:34:18;93491.03;;;11.58;37.46
74921;BME280;63483;47.384;8.860;2023-04-12T11:36:45;93491.41;;;11.61;38.50
74921;BME280;63483;47.384;8.860;2023-04-12T11:39:11;93479.69;;;11.64;38.06
74921;BME280;63483;47.384;8.860;2023-04-12T11:41:45;93469.00;;;11.84;38.73
74921;BME280;63483;47.384;8.860;2023-04-12T11:44:12;93468.09;;;11.97;38.28
74921;BME280;63483;47.384;8.860;2023-04-12T11:46:38;93471.09;;;12.01;39.38
74921;BME280;63483;47.384;8.860;2023-04-12T11:49:03;93488.22;;;12.03;39.38
74921;BME280;63483;47.384;8.860;2023-04-12T11:51:30;93478.50;;;12.04;38.07
74921;BME280;63483;47.384;8.860;2023-04-12T11:53:56;93474.09;;;12.04;38.30
74921;BME280;63483;47.384;8.860;2023-04-12T11:56:23;93474.88;;;12.05;39.35
74921;BME280;63483;47.384;8.860;2023-04-12T11:58:49;93484.16;;;11.82;38.97
74921;BME280;63483;47.384;8.860;2023-04-12T12:01:16;93496.06;;;11.85;39.41
74921;BME280;63483;47.384;8.860;2023-04-12T12:03:42;93492.91;;;11.76;38.45
74921;BME280;63483;47.384;8.860;2023-04-12T12:06:08;93489.88;;;11.72;38.03
74921;BME280;63483;47.384;8.860;2023-04-12T12:08:34;93493.31;;;11.73;38.78
74921;BME280;63483;47.384;8.860;2023-04-12T12:11:00;93488.44;;;11.76;38.11
74921;BME280;63483;47.384;8.860;2023-04-12T12:13:25;93490.09;;;11.71;37.53
74921;BME280;63483;47.384;8.860;2023-04-12T12:15:51;93481.97;;;11.79;37.93
74921;BME280;63483;47.384;8.860;2023-04-12T12:18:16;93485.88;;;11.70;38.03
74921;BME280;63483;47.384;8.860;2023-04-12T12:20:51;93490.06;;;11.77;38.34
74921;BME280;63483;47.384;8.860;2023-04-12T12:23:32;93484.84;;;11.71;38.14
74921;BME280;63483;47.384;8.860;2023-04-12T12:25:58;93478.16;;;11.50;37.47
74921;BME280;63483;47.384;8.860;2023-04-12T12:28:23;93487.75;;;11.63;37.89
74921;BME280;63483;47.384;8.860;2023-04-12T12:30:55;93487.38;;;11.59;38.31
74921;BME280;63483;47.384;8.860;2023-04-12T12:33:22;93485.66;;;11.71;38.39
74921;BME280;63483;47.384;8.860;2023-04-12T12:35:57;93482.19;;;11.77;37.48
74921;BME280;63483;47.384;8.860;2023-04-12T12:38:22;93487.56;;;11.83;37.61
74921;BME280;63483;47.384;8.860;2023-04-12T12:40:48;93491.22;;;11.82;37.86
74921;BME280;63483;47.384;8.860;2023-04-12T12:43:18;93487.16;;;11.86;38.00
74921;BME280;63483;47.384;8.860;2023-04-12T12:45:45;93474.22;;;11.91;37.79
74921;BME280;63483;47.384;8.860;2023-04-12T12:48:11;93476.84;;;11.91;38.05
74921;BME280;63483;47.384;8.860;2023-04-12T12:50:37;93480.22;;;11.98;38.03
74921;BME280;63483;47.384;8.860;2023-04-12T12:53:03;93476.47;;;11.87;37.93
74921;BME280;63483;47.384;8.860;2023-04-12T12:55:32;93477.91;;;11.83;37.04
74921;BME280;63483;47.384;8.860;2023-04-12T12:57:58;93483.56;;;11.80;37.32
74921;BME280;63483;47.384;8.860;2023-04-12T13:00:26;93480.00;;;11.74;36.82
74921;BME280;63483;47.384;8.860;2023-04-12T13:02:52;93481.34;;;11.58;37.35
74921;BME280;63483;47.384;8.860;2023-04-12T13:05:19;93471.63;;;11.59;37.26
74921;BME280;63483;47.384;8.860;2023-04-12T13:07:45;93480.72;;;11.31;37.57
74921;BME280;63483;47.384;8.860;2023-04-12T13:10:11;93482.59;;;11.24;37.37
74921;BME280;63483;47.384;8.860;2023-04-12T13:12:36;93466.59;;;11.32;38.17
74921;BME280;63483;47.384;8.860;2023-04-12T13:15:02;93477.81;;;11.46;37.82
74921;BME280;63483;47.384;8.860;2023-04-12T13:17:28;93463.31;;;11.43;37.73
74921;BME280;63483;47.384;8.860;2023-04-12T13:19:54;93480.53;;;11.33;38.36
74921;BME280;63483;47.384;8.860;2023-04-12T13:22:19;93464.28;;;11.17;38.06
74921;BME280;63483;47.384;8.860;2023-04-12T13:24:45;93455.84;;;11.15;37.31
74921;BME280;63483;47.384;8.860;2023-04-12T13:27:12;93458.94;;;11.31;38.44
74921;BME280;63483;47.384;8.860;2023-04-12T13:29:38;93463.31;;;11.43;38.22
74921;BME280;63483;47.384;8.860;2023-04-12T13:32:03;93448.31;;;11.51;37.24
74921;BME280;63483;47.384;8.860;2023-04-12T13:34:30;93455.16;;;11.52;37.57
74921;BME280;63483;47.384;8.860;2023-04-12T13:36:55;93444.34;;;11.41;37.86
74921;BME280;63483;47.384;8.860;2023-04-12T13:39:20;93456.97;;;11.26;38.04